createdAt,value
2018-10-21T00:00:26.766Z,70.85
2018-10-21T00:02:55.581Z,71.08
2018-10-21T00:05:24.269Z,71.14
2018-10-21T00:07:53.034Z,70.69
2018-10-21T00:10:21.809Z,70.91
2018-10-21T00:12:50.680Z,70.87
2018-10-21T00:15:19.912Z,70.95
2018-10-21T00:17:48.828Z,71.30
2018-10-21T00:20:17.585Z,71.27
2018-10-21T00:22:46.434Z,71.07
2018-10-21T00:25:15.221Z,71.17
2018-10-21T00:27:44.052Z,71.30
2018-10-21T00:30:12.794Z,71.06
2018-10-21T00:32:46.733Z,71.26
2018-10-21T00:35:15.304Z,71.35
2018-10-21T00:37:44.200Z,71.20
2018-10-21T00:40:13.032Z,71.33
2018-10-21T00:42:41.653Z,71.13
2018-10-21T00:45:11.320Z,70.96
2018-10-21T00:47:40.004Z,71.00
2018-10-21T00:50:10.192Z,71.12
2018-10-21T00:52:39.138Z,71.20
2018-10-21T00:55:09.157Z,71.21
2018-10-21T00:57:37.878Z,71.06
2018-10-21T01:00:08.924Z,71.59
2018-10-21T01:02:37.655Z,71.30
2018-10-21T01:05:07.301Z,71.68
2018-10-21T01:07:35.936Z,71.59
2018-10-21T01:10:05.024Z,71.46
2018-10-21T01:12:33.567Z,71.61
2018-10-21T01:15:02.932Z,71.59
2018-10-21T01:17:31.561Z,71.62
2018-10-21T01:20:00.183Z,71.50
2018-10-21T01:22:28.735Z,71.56
2018-10-21T01:24:57.482Z,71.64
2018-10-21T01:27:26.160Z,71.67
2018-10-21T01:29:54.792Z,71.51
2018-10-21T01:32:23.268Z,71.58
2018-10-21T01:34:51.899Z,71.42
2018-10-21T01:37:20.486Z,71.52
2018-10-21T01:40:53.894Z,71.84
2018-10-21T01:43:24.735Z,71.86
2018-10-21T01:45:53.520Z,72.07
2018-10-21T01:48:23.490Z,71.89
2018-10-21T01:50:52.095Z,72.13
2018-10-21T01:53:21.415Z,72.08
2018-10-21T01:55:50.131Z,72.27
2018-10-21T01:58:19.047Z,72.31
2018-10-21T02:00:47.727Z,72.49
2018-10-21T02:03:16.986Z,72.42
2018-10-21T02:05:46.507Z,72.47
2018-10-21T02:08:15.432Z,72.79
2018-10-21T02:10:44.216Z,72.56
2018-10-21T02:13:12.878Z,72.56
2018-10-21T02:15:41.702Z,72.82
2018-10-21T02:18:10.435Z,72.82
2018-10-21T02:20:39.103Z,73.07
2018-10-21T02:23:07.929Z,73.00
2018-10-21T02:25:36.693Z,73.60
2018-10-21T02:28:05.692Z,73.62
2018-10-21T02:30:34.223Z,73.63
2018-10-21T02:33:03.644Z,73.95
2018-10-21T02:35:32.236Z,73.33
2018-10-21T02:38:00.918Z,73.46
2018-10-21T02:41:44.783Z,73.54
2018-10-21T02:44:15.019Z,73.91
2018-10-21T02:46:44.230Z,73.54
2018-10-21T02:49:13.744Z,73.74
2018-10-21T02:51:42.592Z,73.57
2018-10-21T02:54:11.984Z,73.77
2018-10-21T02:56:40.783Z,73.89
2018-10-21T02:59:09.859Z,74.01
2018-10-21T03:01:38.559Z,74.04
2018-10-21T03:04:07.443Z,74.36
2018-10-21T03:06:36.220Z,74.45
2018-10-21T03:09:06.277Z,74.40
2018-10-21T03:11:35.026Z,74.82
2018-10-21T03:14:04.362Z,74.49
2018-10-21T03:16:33.263Z,74.69
2018-10-21T03:19:02.049Z,74.57
2018-10-21T03:21:30.738Z,74.74
2018-10-21T03:23:59.353Z,74.69
2018-10-21T03:26:31.005Z,74.71
2018-10-21T03:28:59.684Z,74.73
2018-10-21T03:31:28.238Z,74.59
2018-10-21T03:33:57.269Z,74.31
2018-10-21T03:36:25.896Z,74.77
2018-10-21T03:38:54.650Z,74.86
2018-10-21T03:41:23.424Z,74.94
2018-10-21T03:43:52.224Z,74.71
2018-10-21T03:46:21.044Z,75.13
2018-10-21T03:48:49.946Z,75.02
2018-10-21T03:51:18.817Z,75.53
2018-10-21T03:53:47.594Z,75.42
2018-10-21T03:56:16.413Z,75.61
2018-10-21T03:58:44.995Z,75.78
2018-10-21T04:01:13.580Z,75.67
2018-10-21T04:03:42.238Z,75.97
2018-10-21T04:06:11.126Z,76.10
2018-10-21T04:08:39.913Z,75.71
2018-10-21T04:11:08.464Z,75.76
2018-10-21T04:13:37.316Z,76.12
2018-10-21T04:16:06.144Z,76.36
2018-10-21T04:18:34.900Z,76.27
2018-10-21T04:21:04.389Z,76.52
2018-10-21T04:23:33.059Z,76.61
2018-10-21T04:26:01.698Z,76.64
2018-10-21T04:28:30.378Z,76.89
2018-10-21T04:30:59.113Z,76.96
2018-10-21T04:33:42.918Z,77.26
2018-10-21T04:36:13.797Z,77.52
2018-10-21T04:38:53.736Z,77.92
2018-10-21T04:41:22.545Z,77.52
2018-10-21T04:43:51.294Z,77.97
2018-10-21T04:46:19.974Z,77.69
2018-10-21T04:48:48.547Z,78.05
2018-10-21T04:51:17.119Z,77.62
2018-10-21T04:53:45.825Z,77.50
2018-10-21T04:56:14.428Z,77.48
2018-10-21T04:58:43.208Z,77.46
2018-10-21T05:01:11.829Z,78.00
2018-10-21T05:03:40.663Z,77.87
2018-10-21T05:06:09.414Z,78.06
2018-10-21T05:08:38.352Z,78.20
2018-10-21T05:11:07.145Z,77.94
2018-10-21T05:13:35.812Z,78.16
2018-10-21T05:16:04.839Z,78.37
2018-10-21T05:18:33.616Z,78.04
2018-10-21T05:21:02.834Z,78.14
2018-10-21T05:23:31.440Z,78.36
2018-10-21T05:26:00.097Z,78.56
2018-10-21T05:28:29.416Z,78.52
2018-10-21T05:30:57.981Z,78.31
2018-10-21T05:33:26.653Z,78.34
2018-10-21T05:35:55.416Z,78.57
2018-10-21T05:38:24.148Z,78.66
2018-10-21T05:40:52.889Z,78.51
2018-10-21T05:43:21.433Z,78.53
2018-10-21T05:45:50.019Z,78.52
2018-10-21T05:48:18.638Z,78.58
2018-10-21T05:50:47.226Z,78.85
2018-10-21T05:53:15.941Z,79.28
2018-10-21T05:55:44.638Z,79.46
2018-10-21T05:58:13.368Z,79.40
2018-10-21T06:00:42.749Z,79.49
2018-10-21T06:03:11.325Z,79.04
2018-10-21T06:05:46.317Z,79.05
2018-10-21T06:08:14.885Z,79.28
2018-10-21T06:10:44.205Z,78.89
2018-10-21T06:13:13.317Z,79.03
2018-10-21T06:15:42.082Z,78.90
2018-10-21T06:18:14.955Z,79.03
2018-10-21T06:20:45.886Z,78.62
2018-10-21T06:23:14.649Z,78.67
2018-10-21T06:25:43.228Z,78.63
2018-10-21T06:28:12.156Z,78.63
2018-10-21T06:30:40.747Z,78.42
2018-10-21T06:33:09.600Z,78.47
2018-10-21T06:35:38.420Z,78.11
2018-10-21T06:38:07.104Z,77.81
2018-10-21T06:40:35.825Z,77.81
2018-10-21T06:43:04.647Z,77.79
2018-10-21T06:45:33.282Z,77.52
2018-10-21T06:48:02.274Z,77.57
2018-10-21T06:50:30.945Z,77.53
2018-10-21T06:52:59.834Z,77.86
2018-10-21T06:55:28.690Z,77.86
2018-10-21T06:57:57.827Z,77.62
2018-10-21T07:00:27.561Z,77.80
2018-10-21T07:02:56.225Z,78.08
2018-10-21T07:05:36.012Z,78.13
2018-10-21T07:08:04.895Z,77.99
2018-10-21T07:10:33.542Z,77.67
2018-10-21T07:13:02.543Z,77.77
2018-10-21T07:15:31.424Z,77.46
2018-10-21T07:18:00.110Z,77.12
2018-10-21T07:20:28.902Z,77.23
2018-10-21T07:22:57.787Z,77.13
2018-10-21T07:25:26.441Z,76.69
2018-10-21T07:27:55.320Z,77.30
2018-10-21T07:30:24.091Z,76.99
2018-10-21T07:32:52.861Z,77.11
2018-10-21T07:35:21.536Z,76.83
2018-10-21T07:37:50.196Z,76.98
2018-10-21T07:40:18.938Z,77.35
2018-10-21T07:42:47.743Z,76.96
2018-10-21T07:45:18.472Z,76.71
2018-10-21T07:47:47.274Z,76.28
2018-10-21T07:50:16.097Z,76.31
2018-10-21T07:52:44.719Z,76.11
2018-10-21T07:55:17.617Z,76.00
2018-10-21T07:57:46.674Z,76.00
2018-10-21T08:00:15.563Z,76.16
2018-10-21T08:02:44.295Z,76.02
2018-10-21T08:05:24.765Z,75.86
2018-10-21T08:08:04.470Z,75.88
2018-10-21T08:10:33.185Z,75.94
2018-10-21T08:13:02.711Z,75.86
2018-10-21T08:15:31.594Z,75.95
2018-10-21T08:18:00.353Z,75.56
2018-10-21T08:20:28.953Z,75.67
2018-10-21T08:22:57.506Z,75.48
2018-10-21T08:25:26.227Z,75.09
2018-10-21T08:27:54.976Z,75.07
2018-10-21T08:30:23.989Z,74.88
2018-10-21T08:32:52.714Z,74.71
2018-10-21T08:35:22.025Z,74.41
2018-10-21T08:37:50.704Z,74.62
2018-10-21T08:40:19.366Z,74.05
2018-10-21T08:42:47.912Z,74.18
2018-10-21T08:45:16.516Z,74.14
2018-10-21T08:47:45.252Z,73.98
2018-10-21T08:50:14.570Z,73.92
2018-10-21T08:52:43.385Z,74.12
2018-10-21T08:55:12.736Z,74.25
2018-10-21T08:57:41.669Z,74.22
2018-10-21T09:00:15.241Z,73.68
2018-10-21T09:02:44.233Z,73.48
2018-10-21T09:05:17.152Z,73.43
2018-10-21T09:07:46.168Z,73.32
2018-10-21T09:10:16.149Z,73.21
2018-10-21T09:12:44.805Z,72.93
2018-10-21T09:15:15.454Z,71.98
2018-10-21T09:17:44.068Z,72.23
2018-10-21T09:20:14.496Z,71.66
2018-10-21T09:22:43.227Z,72.02
2018-10-21T09:25:12.909Z,71.23
2018-10-21T09:27:42.373Z,71.32
2018-10-21T09:30:13.530Z,71.20
2018-10-21T09:32:42.150Z,71.66
2018-10-21T09:35:14.031Z,71.02
2018-10-21T09:37:43.142Z,70.87
2018-10-21T09:40:14.191Z,71.28
2018-10-21T09:42:43.297Z,70.65
2018-10-21T09:45:13.924Z,70.39
2018-10-21T09:47:43.128Z,70.49
2018-10-21T09:50:12.308Z,70.64
2018-10-21T09:52:41.351Z,70.72
2018-10-21T09:55:15.814Z,70.67
2018-10-21T09:57:45.256Z,70.22
2018-10-21T10:00:18.012Z,69.90
2018-10-21T10:02:52.417Z,69.94
2018-10-21T10:05:21.219Z,69.87
2018-10-21T10:07:51.103Z,70.34
2018-10-21T10:10:19.784Z,70.27
2018-10-21T10:12:48.625Z,69.70
2018-10-21T10:15:17.516Z,70.04
2018-10-21T10:17:46.951Z,70.17
2018-10-21T10:20:16.126Z,70.12
2018-10-21T10:22:44.932Z,70.17
2018-10-21T10:25:16.429Z,69.65
2018-10-21T10:27:45.010Z,69.47
2018-10-21T10:30:14.261Z,69.19
2018-10-21T10:32:43.757Z,69.82
2018-10-21T10:35:13.378Z,70.26
2018-10-21T10:37:42.447Z,69.82
2018-10-21T10:40:12.444Z,69.75
2018-10-21T10:42:41.174Z,70.29
2018-10-21T10:45:09.884Z,70.26
2018-10-21T10:47:39.818Z,69.38
2018-10-21T10:50:10.360Z,69.46
2018-10-21T10:52:39.900Z,70.33
2018-10-21T10:55:09.181Z,69.67
2018-10-21T10:57:37.977Z,69.83
2018-10-21T11:00:08.653Z,69.26
2018-10-21T11:02:37.160Z,71.40
2018-10-21T11:05:07.171Z,68.71
2018-10-21T11:07:35.747Z,68.27
2018-10-21T11:10:04.905Z,70.94
2018-10-21T11:12:33.713Z,67.87
2018-10-21T11:15:02.510Z,67.25
2018-10-21T11:17:31.121Z,67.39
2018-10-21T11:19:59.842Z,66.84
2018-10-21T11:22:28.665Z,66.52
2018-10-21T11:24:57.264Z,66.95
2018-10-21T11:27:25.775Z,66.52
2018-10-21T11:29:55.672Z,66.55
2018-10-21T11:32:24.722Z,66.45
2018-10-21T11:34:53.622Z,66.44
2018-10-21T11:37:22.368Z,66.93
2018-10-21T11:39:51.032Z,66.67
2018-10-21T11:42:19.665Z,67.13
2018-10-21T11:44:48.445Z,66.15
2018-10-21T11:47:17.314Z,66.03
2018-10-21T11:49:46.092Z,65.38
2018-10-21T11:52:15.971Z,65.61
2018-10-21T11:54:44.511Z,65.11
2018-10-21T11:57:13.342Z,67.03
2018-10-21T11:59:42.124Z,65.70
2018-10-21T12:02:10.845Z,64.98
2018-10-21T12:04:39.483Z,64.94
2018-10-21T12:07:08.328Z,65.07
2018-10-21T12:09:37.033Z,64.58
2018-10-21T12:12:05.742Z,64.33
2018-10-21T12:14:34.427Z,64.28
2018-10-21T12:17:04.591Z,63.53
2018-10-21T12:19:33.332Z,63.39
2018-10-21T12:22:02.125Z,64.02
2018-10-21T12:24:30.969Z,62.59
2018-10-21T12:26:59.664Z,62.74
2018-10-21T12:29:28.537Z,62.95
2018-10-21T12:31:57.294Z,60.89
2018-10-21T12:34:25.965Z,61.02
2018-10-21T12:36:55.359Z,59.34
2018-10-21T12:39:24.108Z,58.74
2018-10-21T12:41:53.914Z,59.57
2018-10-21T12:44:23.316Z,56.88
2018-10-21T12:46:52.153Z,57.37
2018-10-21T12:49:20.778Z,57.05
2018-10-21T12:51:50.336Z,57.89
2018-10-21T12:54:19.523Z,57.44
2018-10-21T12:56:48.753Z,59.07
2018-10-21T12:59:17.451Z,58.28
2018-10-21T13:01:46.048Z,58.38
2018-10-21T13:04:21.276Z,59.28
2018-10-21T13:06:49.919Z,58.91
2018-10-21T13:09:19.284Z,59.39
2018-10-21T13:11:48.081Z,59.14
2018-10-21T13:14:17.234Z,58.59
2018-10-21T13:16:46.956Z,59.04
2018-10-21T13:19:16.071Z,59.17
2018-10-21T13:21:44.893Z,59.12
2018-10-21T13:24:19.545Z,59.94
2018-10-21T13:26:48.233Z,60.13
2018-10-21T13:29:17.033Z,59.69
2018-10-21T13:31:45.710Z,59.75
2018-10-21T13:34:15.232Z,59.40
2018-10-21T13:36:43.916Z,59.94
2018-10-21T13:39:14.558Z,59.36
2018-10-21T13:44:36.693Z,59.21
2018-10-21T13:47:05.406Z,59.58
2018-10-21T13:49:34.147Z,58.64
2018-10-21T13:52:03.304Z,58.68
2018-10-21T13:54:31.844Z,58.81
2018-10-21T13:57:00.559Z,58.80
2018-10-21T13:59:29.348Z,58.11
2018-10-21T14:01:58.074Z,58.53
2018-10-21T14:04:26.680Z,58.44
2018-10-21T14:06:57.422Z,58.96
2018-10-21T14:09:26.316Z,58.26
2018-10-21T14:11:54.995Z,58.01
2018-10-21T14:14:23.548Z,57.86
2018-10-21T14:16:52.612Z,58.16
2018-10-21T14:19:21.975Z,58.30
2018-10-21T14:21:50.590Z,57.76
2018-10-21T14:24:19.581Z,58.21
2018-10-21T14:26:48.039Z,58.46
2018-10-21T14:29:16.778Z,58.57
2018-10-21T14:31:45.884Z,58.68
2018-10-21T14:34:14.813Z,58.51
2018-10-21T14:36:43.680Z,58.47
2018-10-21T14:39:13.523Z,58.57
2018-10-21T14:41:42.271Z,59.31
2018-10-21T14:44:10.954Z,59.30
2018-10-21T14:46:40.252Z,59.03
2018-10-21T14:49:09.864Z,58.72
2018-10-21T14:51:38.768Z,58.82
2018-10-21T14:54:08.230Z,58.50
2018-10-21T14:56:37.662Z,59.11
2018-10-21T14:59:06.675Z,59.49
2018-10-21T15:01:35.623Z,59.93
2018-10-21T15:04:04.524Z,59.49
2018-10-21T15:06:33.644Z,59.17
2018-10-21T15:09:04.262Z,59.00
2018-10-21T15:11:32.952Z,59.18
2018-10-21T15:14:03.011Z,59.35
2018-10-21T15:16:31.653Z,59.45
2018-10-21T15:19:00.770Z,58.12
2018-10-21T15:21:29.675Z,59.11
2018-10-21T15:23:59.072Z,58.16
2018-10-21T15:26:27.936Z,58.37
2018-10-21T15:28:56.883Z,58.50
2018-10-21T15:31:25.632Z,59.47
2018-10-21T15:33:54.689Z,58.95
2018-10-21T15:36:23.351Z,59.64
2018-10-21T15:38:51.993Z,59.67
2018-10-21T15:41:20.712Z,59.27
2018-10-21T15:43:49.601Z,60.50
2018-10-21T15:46:18.562Z,60.57
2018-10-21T15:48:47.492Z,61.02
2018-10-21T15:51:16.151Z,61.44
2018-10-21T15:53:44.767Z,61.46
2018-10-21T15:56:13.560Z,60.98
2018-10-21T15:58:46.107Z,61.42
2018-10-21T16:01:15.080Z,62.34
2018-10-21T16:03:44.107Z,62.56
2018-10-21T16:06:13.922Z,61.88
2018-10-21T16:08:42.731Z,60.37
2018-10-21T16:11:11.654Z,60.44
2018-10-21T16:13:40.566Z,60.77
2018-10-21T16:16:09.321Z,60.45
2018-10-21T16:18:38.308Z,60.82
2018-10-21T16:21:11.791Z,60.95
2018-10-21T16:23:40.682Z,61.58
2018-10-21T16:26:09.474Z,61.76
2018-10-21T16:28:38.177Z,61.65
2018-10-21T16:31:07.063Z,62.62
2018-10-21T16:33:35.784Z,63.45
2018-10-21T16:36:04.637Z,63.41
2018-10-21T16:38:33.447Z,63.92
2018-10-21T16:41:02.922Z,64.30
2018-10-21T16:43:31.663Z,64.80
2018-10-21T16:46:00.307Z,65.34
2018-10-21T16:48:29.012Z,65.34
2018-10-21T16:50:57.936Z,65.59
2018-10-21T16:53:26.814Z,66.12
2018-10-21T16:55:56.411Z,66.32
2018-10-21T16:58:25.946Z,66.83
2018-10-21T17:00:54.606Z,67.18
2018-10-21T17:03:24.177Z,66.98
2018-10-21T17:05:53.026Z,67.72
2018-10-21T17:08:21.779Z,68.02
2018-10-21T17:10:50.652Z,67.94
2018-10-21T17:13:19.212Z,68.38
2018-10-21T17:15:47.823Z,68.44
2018-10-21T17:18:16.499Z,68.67
2018-10-21T17:20:45.233Z,68.88
2018-10-21T17:23:14.095Z,69.09
2018-10-21T17:25:42.823Z,69.13
2018-10-21T17:28:11.625Z,69.17
2018-10-21T17:30:40.310Z,69.04
2018-10-21T17:33:09.056Z,69.63
2018-10-21T17:35:37.665Z,69.31
2018-10-21T17:38:06.452Z,69.70
2018-10-21T17:40:35.197Z,70.00
2018-10-21T17:43:04.281Z,70.07
2018-10-21T17:45:33.015Z,70.06
2018-10-21T17:48:02.301Z,70.37
2018-10-21T17:50:31.051Z,70.21
2018-10-21T17:52:59.743Z,70.44
2018-10-21T17:55:28.526Z,70.79
2018-10-21T17:57:58.056Z,70.77
2018-10-21T18:00:27.507Z,70.89
2018-10-21T18:02:56.253Z,70.81
2018-10-21T18:05:25.068Z,71.15
2018-10-21T18:07:53.861Z,71.25
2018-10-21T18:10:22.874Z,71.29
2018-10-21T18:12:51.569Z,71.23
2018-10-21T18:15:20.344Z,71.68
2018-10-21T18:17:49.003Z,71.71
2018-10-21T18:20:17.887Z,71.32
2018-10-21T18:22:47.402Z,71.79
2018-10-21T18:25:16.226Z,71.48
2018-10-21T18:27:45.097Z,71.72
2018-10-21T18:30:13.937Z,71.83
2018-10-21T18:32:42.924Z,71.92
2018-10-21T18:35:14.211Z,72.36
2018-10-21T18:37:43.014Z,72.20
2018-10-21T18:40:12.617Z,72.13
2018-10-21T18:42:41.729Z,72.50
2018-10-21T18:45:12.382Z,72.95
2018-10-21T18:47:41.396Z,72.89
2018-10-21T18:50:12.178Z,72.75
2018-10-21T18:52:41.425Z,73.15
2018-10-21T18:55:12.886Z,73.20
2018-10-21T18:57:41.911Z,72.93
2018-10-21T19:00:14.106Z,72.91
2018-10-21T19:02:42.812Z,72.87
2018-10-21T19:05:13.679Z,73.13
2018-10-21T19:07:44.738Z,73.36
2018-10-21T19:10:14.865Z,73.06
2018-10-21T19:12:43.618Z,73.39
2018-10-21T19:15:13.306Z,73.65
2018-10-21T19:17:42.388Z,73.46
2018-10-21T19:20:13.321Z,73.71
2018-10-21T19:22:42.390Z,73.58
2018-10-21T19:25:12.907Z,73.64
2018-10-21T19:27:42.167Z,73.76
2018-10-21T19:30:12.099Z,73.71
2018-10-21T19:32:41.239Z,73.60
2018-10-21T19:35:11.332Z,73.62
2018-10-21T19:37:40.379Z,73.75
2018-10-21T19:40:10.789Z,74.18
2018-10-21T19:42:39.478Z,73.86
2018-10-21T19:45:09.152Z,74.28
2018-10-21T19:47:37.855Z,73.90
2018-10-21T19:50:08.029Z,74.18
2018-10-21T19:52:36.770Z,74.30
2018-10-21T19:55:05.658Z,74.20
2018-10-21T19:57:34.451Z,74.22
2018-10-21T20:00:03.644Z,74.34
2018-10-21T20:02:33.078Z,74.35
2018-10-21T20:05:02.298Z,74.37
2018-10-21T20:07:32.064Z,74.64
2018-10-21T20:10:02.828Z,74.46
2018-10-21T20:12:35.554Z,74.41
2018-10-21T20:15:05.159Z,74.25
2018-10-21T20:17:34.062Z,74.48
2018-10-21T20:20:03.097Z,74.57
2018-10-21T20:22:31.787Z,74.45
2018-10-21T20:25:00.601Z,74.72
2018-10-21T20:27:29.250Z,74.87
2018-10-21T20:29:57.963Z,74.70
2018-10-21T20:32:26.792Z,74.84
2018-10-21T20:34:55.534Z,75.00
2018-10-21T20:37:24.742Z,74.99
2018-10-21T20:39:53.356Z,74.91
2018-10-21T20:42:22.154Z,74.76
2018-10-21T20:44:51.007Z,75.19
2018-10-21T20:47:19.674Z,74.95
2018-10-21T20:49:48.336Z,75.50
2018-10-21T20:52:17.082Z,75.15
2018-10-21T20:54:45.703Z,74.96
2018-10-21T20:57:14.618Z,75.30
2018-10-21T20:59:44.605Z,75.51
2018-10-21T21:02:14.534Z,75.27
2018-10-21T21:04:43.190Z,75.33
2018-10-21T21:07:12.017Z,75.30
2018-10-21T21:09:41.209Z,75.51
2018-10-21T21:12:09.945Z,75.60
2018-10-21T21:14:38.693Z,75.44
2018-10-21T21:17:07.323Z,75.65
2018-10-21T21:19:35.903Z,75.67
2018-10-21T21:22:04.633Z,75.88
2018-10-21T21:24:33.338Z,75.46
2018-10-21T21:27:02.535Z,75.53
2018-10-21T21:29:31.276Z,75.32
2018-10-21T21:31:59.864Z,75.26
2018-10-21T21:34:28.481Z,75.53
2018-10-21T21:36:57.302Z,75.71
2018-10-21T21:39:25.994Z,75.28
2018-10-21T21:41:54.653Z,75.56
2018-10-21T21:44:23.845Z,75.52
2018-10-21T21:46:52.475Z,75.76
2018-10-21T21:49:21.111Z,75.54
2018-10-21T21:51:49.745Z,75.06
2018-10-21T21:54:18.453Z,75.72
2018-10-21T21:56:47.528Z,75.64
2018-10-21T21:59:16.226Z,75.70
2018-10-21T22:01:44.846Z,75.91
2018-10-21T22:04:13.638Z,75.85
2018-10-21T22:06:42.207Z,76.01
2018-10-21T22:09:12.668Z,75.88
2018-10-21T22:11:41.721Z,75.74
2018-10-21T22:14:10.992Z,75.74
2018-10-21T22:16:39.554Z,75.68
2018-10-21T22:19:08.902Z,75.99
2018-10-21T22:21:38.447Z,75.45
2018-10-21T22:24:08.007Z,75.51
2018-10-21T22:26:36.626Z,75.67
2018-10-21T22:29:05.590Z,75.44
2018-10-21T22:31:34.299Z,75.50
2018-10-21T22:34:03.025Z,75.65
2018-10-21T22:36:31.637Z,75.43
2018-10-21T22:39:00.332Z,75.64
2018-10-21T22:41:28.922Z,75.71
2018-10-21T22:43:57.581Z,75.51
2018-10-21T22:46:26.221Z,75.47
2018-10-21T22:48:54.853Z,76.26
2018-10-21T22:51:23.440Z,75.66
2018-10-21T22:53:52.165Z,75.15
2018-10-21T22:56:20.876Z,75.60
2018-10-21T22:58:49.530Z,75.73
2018-10-21T23:01:18.416Z,75.63
2018-10-21T23:03:47.113Z,75.86
2018-10-21T23:06:15.881Z,75.79
2018-10-21T23:08:44.438Z,75.70
2018-10-21T23:11:13.186Z,75.81
2018-10-21T23:13:41.989Z,75.79
2018-10-21T23:16:11.041Z,76.09
2018-10-21T23:18:39.639Z,76.05
2018-10-21T23:21:08.542Z,76.00
2018-10-21T23:23:37.146Z,76.05
2018-10-21T23:26:05.811Z,75.97
2018-10-21T23:28:34.342Z,76.09
2018-10-21T23:31:04.138Z,75.79
2018-10-21T23:33:32.663Z,76.16
2018-10-21T23:36:01.831Z,75.97
2018-10-21T23:38:30.500Z,75.81
2018-10-21T23:40:59.048Z,75.86
2018-10-21T23:43:27.677Z,75.90
2018-10-21T23:45:56.204Z,75.63
2018-10-21T23:48:25.002Z,75.70
2018-10-21T23:50:53.625Z,75.62
2018-10-21T23:53:22.284Z,75.32
2018-10-21T23:55:51.005Z,75.47
2018-10-21T23:58:20.044Z,75.37
